sensor_id;sensor_type;location;lat;lon;timestamp;P1;durP1;ratioP1;P2;durP2;ratioP2
31732;SDS011;18312;51.486;7.144;2022-10-15T00:00:36;27.00;;;12.23;;
31732;SDS011;18312;51.486;7.144;2022-10-15T00:03:03;31.13;;;13.43;;
31732;SDS011;18312;51.486;7.144;2022-10-15T00:05:30;27.08;;;12.45;;
31732;SDS011;18312;51.486;7.144;2022-10-15T00:07:58;29.88;;;12.00;;
31732;SDS011;18312;51.486;7.144;2022-10-15T00:10:25;25.80;;;12.00;;
31732;SDS011;18312;51.486;7.144;2022-10-15T00:12:52;30.25;;;13.23;;
31732;SDS011;18312;51.486;7.144;2022-10-15T00:15:18;29.38;;;13.10;;
31732;SDS011;18312;51.486;7.144;2022-10-15T00:17:45;26.55;;;12.73;;
31732;SDS011;18312;51.486;7.144;2022-10-15T00:20:12;37.05;;;13.57;;
31732;SDS011;18312;51.486;7.144;2022-10-15T00:22:38;37.42;;;13.00;;
31732;SDS011;18312;51.486;7.144;2022-10-15T00:25:08;43.22;;;14.63;;
31732;SDS011;18312;51.486;7.144;2022-10-15T00:27:35;26.27;;;11.68;;
31732;SDS011;18312;51.486;7.144;2022-10-15T00:30:03;28.00;;;13.20;;
31732;SDS011;18312;51.486;7.144;2022-10-15T00:32:31;27.30;;;12.82;;
31732;SDS011;18312;51.486;7.144;2022-10-15T00:34:58;30.25;;;12.65;;
31732;SDS011;18312;51.486;7.144;2022-10-15T00:37:25;30.67;;;13.68;;
31732;SDS011;18312;51.486;7.144;2022-10-15T00:39:52;25.02;;;12.35;;
31732;SDS011;18312;51.486;7.144;2022-10-15T00:42:20;31.33;;;12.45;;
31732;SDS011;18312;51.486;7.144;2022-10-15T00:44:49;30.02;;;13.32;;
31732;SDS011;18312;51.486;7.144;2022-10-15T00:47:19;26.13;;;12.77;;
31732;SDS011;18312;51.486;7.144;2022-10-15T00:49:51;26.58;;;12.82;;
31732;SDS011;18312;51.486;7.144;2022-10-15T00:52:24;26.23;;;11.45;;
31732;SDS011;18312;51.486;7.144;2022-10-15T00:55:02;29.92;;;13.93;;
31732;SDS011;18312;51.486;7.144;2022-10-15T00:57:33;32.35;;;14.15;;
31732;SDS011;18312;51.486;7.144;2022-10-15T01:00:01;39.08;;;13.35;;
31732;SDS011;18312;51.486;7.144;2022-10-15T01:02:32;29.63;;;12.65;;
31732;SDS011;18312;51.486;7.144;2022-10-15T01:04:59;31.63;;;13.38;;
31732;SDS011;18312;51.486;7.144;2022-10-15T01:07:25;35.60;;;14.30;;
31732;SDS011;18312;51.486;7.144;2022-10-15T01:09:52;30.52;;;13.40;;
31732;SDS011;18312;51.486;7.144;2022-10-15T01:12:22;28.35;;;13.27;;
31732;SDS011;18312;51.486;7.144;2022-10-15T01:14:58;29.60;;;12.93;;
31732;SDS011;18312;51.486;7.144;2022-10-15T01:17:33;25.88;;;13.27;;
31732;SDS011;18312;51.486;7.144;2022-10-15T01:23:05;28.98;;;12.43;;
31732;SDS011;18312;51.486;7.144;2022-10-15T01:25:54;31.35;;;14.20;;
31732;SDS011;18312;51.486;7.144;2022-10-15T01:28:34;30.23;;;14.32;;
31732;SDS011;18312;51.486;7.144;2022-10-15T01:31:13;30.73;;;13.98;;
31732;SDS011;18312;51.486;7.144;2022-10-15T01:33:48;31.98;;;14.50;;
31732;SDS011;18312;51.486;7.144;2022-10-15T01:36:27;29.50;;;12.43;;
31732;SDS011;18312;51.486;7.144;2022-10-15T01:38:58;26.95;;;11.60;;
31732;SDS011;18312;51.486;7.144;2022-10-15T01:41:30;26.08;;;12.98;;
31732;SDS011;18312;51.486;7.144;2022-10-15T01:44:05;25.98;;;13.57;;
31732;SDS011;18312;51.486;7.144;2022-10-15T01:46:37;30.10;;;12.48;;
31732;SDS011;18312;51.486;7.144;2022-10-15T01:49:07;32.88;;;15.40;;
31732;SDS011;18312;51.486;7.144;2022-10-15T01:51:38;28.52;;;12.93;;
31732;SDS011;18312;51.486;7.144;2022-10-15T01:54:08;33.88;;;14.20;;
31732;SDS011;18312;51.486;7.144;2022-10-15T01:56:38;32.35;;;14.52;;
31732;SDS011;18312;51.486;7.144;2022-10-15T01:59:10;26.98;;;13.60;;
31732;SDS011;18312;51.486;7.144;2022-10-15T02:01:42;31.63;;;14.23;;
31732;SDS011;18312;51.486;7.144;2022-10-15T02:04:15;39.22;;;15.10;;
31732;SDS011;18312;51.486;7.144;2022-10-15T02:06:44;31.55;;;14.35;;
31732;SDS011;18312;51.486;7.144;2022-10-15T02:09:14;28.90;;;14.65;;
31732;SDS011;18312;51.486;7.144;2022-10-15T02:11:49;32.13;;;14.93;;
31732;SDS011;18312;51.486;7.144;2022-10-15T02:14:26;26.38;;;14.07;;
31732;SDS011;18312;51.486;7.144;2022-10-15T02:17:03;32.45;;;14.82;;
31732;SDS011;18312;51.486;7.144;2022-10-15T02:19:36;31.55;;;14.73;;
31732;SDS011;18312;51.486;7.144;2022-10-15T02:22:08;34.33;;;14.70;;
31732;SDS011;18312;51.486;7.144;2022-10-15T02:24:40;35.78;;;15.85;;
31732;SDS011;18312;51.486;7.144;2022-10-15T02:27:10;33.38;;;15.48;;
31732;SDS011;18312;51.486;7.144;2022-10-15T02:32:09;26.30;;;13.70;;
31732;SDS011;18312;51.486;7.144;2022-10-15T02:34:38;30.92;;;14.00;;
31732;SDS011;18312;51.486;7.144;2022-10-15T02:37:05;36.42;;;15.52;;
31732;SDS011;18312;51.486;7.144;2022-10-15T02:39:33;34.40;;;15.30;;
31732;SDS011;18312;51.486;7.144;2022-10-15T02:42:00;30.73;;;15.23;;
31732;SDS011;18312;51.486;7.144;2022-10-15T02:44:28;40.22;;;16.23;;
31732;SDS011;18312;51.486;7.144;2022-10-15T02:46:54;37.83;;;15.15;;
31732;SDS011;18312;51.486;7.144;2022-10-15T02:49:24;35.83;;;16.25;;
31732;SDS011;18312;51.486;7.144;2022-10-15T02:51:50;32.40;;;14.85;;
31732;SDS011;18312;51.486;7.144;2022-10-15T02:54:17;38.03;;;15.52;;
31732;SDS011;18312;51.486;7.144;2022-10-15T02:56:44;30.48;;;15.63;;
31732;SDS011;18312;51.486;7.144;2022-10-15T02:59:11;42.15;;;17.70;;
31732;SDS011;18312;51.486;7.144;2022-10-15T03:01:37;41.95;;;17.17;;
31732;SDS011;18312;51.486;7.144;2022-10-15T03:04:04;42.38;;;18.15;;
31732;SDS011;18312;51.486;7.144;2022-10-15T03:06:32;46.15;;;18.67;;
31732;SDS011;18312;51.486;7.144;2022-10-15T03:08:59;60.70;;;22.33;;
31732;SDS011;18312;51.486;7.144;2022-10-15T03:11:25;61.35;;;21.83;;
31732;SDS011;18312;51.486;7.144;2022-10-15T03:13:52;69.13;;;21.52;;
31732;SDS011;18312;51.486;7.144;2022-10-15T03:16:19;53.08;;;20.85;;
31732;SDS011;18312;51.486;7.144;2022-10-15T03:18:45;54.95;;;22.02;;
31732;SDS011;18312;51.486;7.144;2022-10-15T03:21:12;45.22;;;20.45;;
31732;SDS011;18312;51.486;7.144;2022-10-15T03:23:40;51.63;;;20.08;;
31732;SDS011;18312;51.486;7.144;2022-10-15T03:26:07;45.63;;;18.65;;
31732;SDS011;18312;51.486;7.144;2022-10-15T03:28:33;56.90;;;19.77;;
31732;SDS011;18312;51.486;7.144;2022-10-15T03:31:00;44.90;;;19.17;;
31732;SDS011;18312;51.486;7.144;2022-10-15T03:33:27;47.10;;;20.23;;
31732;SDS011;18312;51.486;7.144;2022-10-15T03:35:53;45.70;;;18.65;;
31732;SDS011;18312;51.486;7.144;2022-10-15T03:38:21;44.95;;;19.73;;
31732;SDS011;18312;51.486;7.144;2022-10-15T03:40:49;49.00;;;18.63;;
31732;SDS011;18312;51.486;7.144;2022-10-15T03:43:16;42.13;;;17.88;;
31732;SDS011;18312;51.486;7.144;2022-10-15T03:45:42;41.13;;;17.48;;
31732;SDS011;18312;51.486;7.144;2022-10-15T03:48:09;38.05;;;18.45;;
31732;SDS011;18312;51.486;7.144;2022-10-15T03:50:36;39.80;;;17.92;;
31732;SDS011;18312;51.486;7.144;2022-10-15T03:53:03;36.33;;;16.17;;
31732;SDS011;18312;51.486;7.144;2022-10-15T03:55:30;35.08;;;16.95;;
31732;SDS011;18312;51.486;7.144;2022-10-15T03:57:58;36.55;;;16.17;;
31732;SDS011;18312;51.486;7.144;2022-10-15T04:00:26;39.90;;;17.17;;
31732;SDS011;18312;51.486;7.144;2022-10-15T04:02:53;38.75;;;16.83;;
31732;SDS011;18312;51.486;7.144;2022-10-15T04:05:20;44.03;;;18.00;;
31732;SDS011;18312;51.486;7.144;2022-10-15T04:07:47;40.45;;;17.83;;
31732;SDS011;18312;51.486;7.144;2022-10-15T04:10:14;39.03;;;18.25;;
31732;SDS011;18312;51.486;7.144;2022-10-15T04:12:40;48.60;;;20.45;;
31732;SDS011;18312;51.486;7.144;2022-10-15T04:15:09;49.10;;;19.70;;
31732;SDS011;18312;51.486;7.144;2022-10-15T04:17:36;47.50;;;19.30;;
31732;SDS011;18312;51.486;7.144;2022-10-15T04:20:02;54.10;;;21.35;;
31732;SDS011;18312;51.486;7.144;2022-10-15T04:22:29;59.38;;;22.67;;
31732;SDS011;18312;51.486;7.144;2022-10-15T04:24:56;53.78;;;21.98;;
31732;SDS011;18312;51.486;7.144;2022-10-15T04:27:23;52.38;;;20.70;;
31732;SDS011;18312;51.486;7.144;2022-10-15T04:29:50;56.22;;;22.80;;
31732;SDS011;18312;51.486;7.144;2022-10-15T04:32:18;52.97;;;22.05;;
31732;SDS011;18312;51.486;7.144;2022-10-15T04:34:45;49.30;;;21.13;;
31732;SDS011;18312;51.486;7.144;2022-10-15T04:37:12;48.80;;;22.10;;
31732;SDS011;18312;51.486;7.144;2022-10-15T04:39:38;54.70;;;21.48;;
31732;SDS011;18312;51.486;7.144;2022-10-15T04:42:05;53.13;;;21.63;;
31732;SDS011;18312;51.486;7.144;2022-10-15T04:44:32;52.03;;;21.98;;
31732;SDS011;18312;51.486;7.144;2022-10-15T04:46:59;65.03;;;22.15;;
31732;SDS011;18312;51.486;7.144;2022-10-15T04:49:27;56.17;;;22.75;;
31732;SDS011;18312;51.486;7.144;2022-10-15T04:51:54;62.00;;;22.45;;
31732;SDS011;18312;51.486;7.144;2022-10-15T04:54:21;56.63;;;23.02;;
31732;SDS011;18312;51.486;7.144;2022-10-15T04:56:48;58.80;;;22.90;;
31732;SDS011;18312;51.486;7.144;2022-10-15T04:59:14;56.40;;;21.98;;
31732;SDS011;18312;51.486;7.144;2022-10-15T05:01:41;57.35;;;21.00;;
31732;SDS011;18312;51.486;7.144;2022-10-15T05:04:09;52.58;;;21.25;;
31732;SDS011;18312;51.486;7.144;2022-10-15T05:06:37;68.60;;;23.17;;
31732;SDS011;18312;51.486;7.144;2022-10-15T05:09:04;58.72;;;22.70;;
31732;SDS011;18312;51.486;7.144;2022-10-15T05:11:34;55.55;;;24.77;;
31732;SDS011;18312;51.486;7.144;2022-10-15T05:14:02;51.13;;;21.45;;
31732;SDS011;18312;51.486;7.144;2022-10-15T05:16:30;52.88;;;22.48;;
31732;SDS011;18312;51.486;7.144;2022-10-15T05:18:58;55.67;;;21.88;;
31732;SDS011;18312;51.486;7.144;2022-10-15T05:21:27;56.72;;;22.45;;
31732;SDS011;18312;51.486;7.144;2022-10-15T05:23:56;50.25;;;21.25;;
31732;SDS011;18312;51.486;7.144;2022-10-15T05:26:24;55.15;;;22.45;;
31732;SDS011;18312;51.486;7.144;2022-10-15T05:31:21;52.40;;;20.73;;
31732;SDS011;18312;51.486;7.144;2022-10-15T05:33:50;46.00;;;20.70;;
31732;SDS011;18312;51.486;7.144;2022-10-15T05:36:18;47.60;;;22.25;;
31732;SDS011;18312;51.486;7.144;2022-10-15T05:38:48;58.55;;;22.35;;
31732;SDS011;18312;51.486;7.144;2022-10-15T05:41:17;57.53;;;22.48;;
31732;SDS011;18312;51.486;7.144;2022-10-15T05:43:45;50.90;;;21.45;;
31732;SDS011;18312;51.486;7.144;2022-10-15T05:46:12;56.42;;;21.67;;
31732;SDS011;18312;51.486;7.144;2022-10-15T05:48:39;54.88;;;22.77;;
31732;SDS011;18312;51.486;7.144;2022-10-15T05:51:06;59.20;;;22.77;;
31732;SDS011;18312;51.486;7.144;2022-10-15T05:53:36;57.97;;;22.65;;
31732;SDS011;18312;51.486;7.144;2022-10-15T05:56:03;57.67;;;22.15;;
31732;SDS011;18312;51.486;7.144;2022-10-15T05:58:33;55.58;;;23.77;;
31732;SDS011;18312;51.486;7.144;2022-10-15T06:01:01;57.73;;;23.63;;
31732;SDS011;18312;51.486;7.144;2022-10-15T06:03:29;64.93;;;24.88;;
31732;SDS011;18312;51.486;7.144;2022-10-15T06:05:56;62.78;;;24.65;;
31732;SDS011;18312;51.486;7.144;2022-10-15T06:08:22;60.83;;;23.88;;
31732;SDS011;18312;51.486;7.144;2022-10-15T06:10:49;56.08;;;23.92;;
31732;SDS011;18312;51.486;7.144;2022-10-15T06:13:16;58.35;;;25.15;;
31732;SDS011;18312;51.486;7.144;2022-10-15T06:15:44;53.92;;;22.63;;
31732;SDS011;18312;51.486;7.144;2022-10-15T06:18:11;61.22;;;25.75;;
31732;SDS011;18312;51.486;7.144;2022-10-15T06:20:40;54.30;;;23.13;;
31732;SDS011;18312;51.486;7.144;2022-10-15T06:23:08;54.15;;;23.45;;
31732;SDS011;18312;51.486;7.144;2022-10-15T06:25:35;56.30;;;24.27;;
31732;SDS011;18312;51.486;7.144;2022-10-15T06:28:02;53.03;;;22.75;;
31732;SDS011;18312;51.486;7.144;2022-10-15T06:30:30;49.50;;;21.92;;
31732;SDS011;18312;51.486;7.144;2022-10-15T06:32:58;54.97;;;23.73;;
31732;SDS011;18312;51.486;7.144;2022-10-15T06:35:25;55.65;;;22.58;;
31732;SDS011;18312;51.486;7.144;2022-10-15T06:37:54;47.53;;;21.20;;
31732;SDS011;18312;51.486;7.144;2022-10-15T06:40:21;50.75;;;21.13;;
31732;SDS011;18312;51.486;7.144;2022-10-15T06:42:47;55.25;;;23.27;;
31732;SDS011;18312;51.486;7.144;2022-10-15T06:45:14;51.47;;;21.35;;
31732;SDS011;18312;51.486;7.144;2022-10-15T06:47:41;50.78;;;22.02;;
31732;SDS011;18312;51.486;7.144;2022-10-15T06:50:09;53.22;;;21.98;;
31732;SDS011;18312;51.486;7.144;2022-10-15T06:52:36;46.25;;;22.13;;
31732;SDS011;18312;51.486;7.144;2022-10-15T06:55:03;41.83;;;21.58;;
31732;SDS011;18312;51.486;7.144;2022-10-15T06:57:30;46.90;;;21.25;;
31732;SDS011;18312;51.486;7.144;2022-10-15T06:59:57;47.72;;;22.33;;
31732;SDS011;18312;51.486;7.144;2022-10-15T07:02:23;50.53;;;22.15;;
31732;SDS011;18312;51.486;7.144;2022-10-15T07:04:50;48.88;;;22.25;;
31732;SDS011;18312;51.486;7.144;2022-10-15T07:07:18;43.90;;;21.33;;
31732;SDS011;18312;51.486;7.144;2022-10-15T07:09:45;42.38;;;21.10;;
31732;SDS011;18312;51.486;7.144;2022-10-15T07:12:12;39.42;;;19.80;;
31732;SDS011;18312;51.486;7.144;2022-10-15T07:14:40;44.58;;;20.23;;
31732;SDS011;18312;51.486;7.144;2022-10-15T07:17:06;36.75;;;18.70;;
31732;SDS011;18312;51.486;7.144;2022-10-15T07:19:33;40.83;;;19.38;;
31732;SDS011;18312;51.486;7.144;2022-10-15T07:22:00;46.42;;;21.13;;
31732;SDS011;18312;51.486;7.144;2022-10-15T07:24:28;38.67;;;19.40;;
31732;SDS011;18312;51.486;7.144;2022-10-15T07:26:55;41.75;;;20.50;;
31732;SDS011;18312;51.486;7.144;2022-10-15T07:29:21;39.90;;;19.73;;
31732;SDS011;18312;51.486;7.144;2022-10-15T07:31:48;41.63;;;18.98;;
31732;SDS011;18312;51.486;7.144;2022-10-15T07:34:15;40.05;;;19.75;;
31732;SDS011;18312;51.486;7.144;2022-10-15T07:36:42;38.00;;;20.90;;
31732;SDS011;18312;51.486;7.144;2022-10-15T07:39:08;38.58;;;18.40;;
31732;SDS011;18312;51.486;7.144;2022-10-15T07:41:37;34.55;;;18.75;;
31732;SDS011;18312;51.486;7.144;2022-10-15T07:44:04;40.28;;;18.17;;
31732;SDS011;18312;51.486;7.144;2022-10-15T07:46:30;33.40;;;17.80;;
31732;SDS011;18312;51.486;7.144;2022-10-15T07:48:57;41.45;;;18.98;;
31732;SDS011;18312;51.486;7.144;2022-10-15T07:51:24;39.65;;;18.95;;
31732;SDS011;18312;51.486;7.144;2022-10-15T07:53:51;38.45;;;18.23;;
31732;SDS011;18312;51.486;7.144;2022-10-15T07:56:17;35.90;;;17.60;;
31732;SDS011;18312;51.486;7.144;2022-10-15T07:58:45;33.47;;;17.25;;
31732;SDS011;18312;51.486;7.144;2022-10-15T08:01:16;36.05;;;19.23;;
31732;SDS011;18312;51.486;7.144;2022-10-15T08:03:43;31.70;;;17.58;;
31732;SDS011;18312;51.486;7.144;2022-10-15T08:06:10;38.22;;;18.52;;
31732;SDS011;18312;51.486;7.144;2022-10-15T08:08:37;37.50;;;18.98;;
31732;SDS011;18312;51.486;7.144;2022-10-15T08:11:04;33.90;;;18.67;;
31732;SDS011;18312;51.486;7.144;2022-10-15T08:13:31;35.90;;;17.88;;
31732;SDS011;18312;51.486;7.144;2022-10-15T08:15:59;32.90;;;16.98;;
31732;SDS011;18312;51.486;7.144;2022-10-15T08:18:26;33.60;;;17.83;;
31732;SDS011;18312;51.486;7.144;2022-10-15T08:20:53;40.60;;;18.33;;
31732;SDS011;18312;51.486;7.144;2022-10-15T08:23:23;40.50;;;19.38;;
31732;SDS011;18312;51.486;7.144;2022-10-15T08:25:49;39.92;;;17.92;;
31732;SDS011;18312;51.486;7.144;2022-10-15T08:28:16;34.22;;;17.65;;
31732;SDS011;18312;51.486;7.144;2022-10-15T08:30:43;33.53;;;16.38;;
31732;SDS011;18312;51.486;7.144;2022-10-15T08:33:11;28.40;;;15.35;;
31732;SDS011;18312;51.486;7.144;2022-10-15T08:35:39;26.90;;;15.05;;
31732;SDS011;18312;51.486;7.144;2022-10-15T08:38:07;22.25;;;12.30;;
31732;SDS011;18312;51.486;7.144;2022-10-15T08:40:34;23.27;;;11.73;;
31732;SDS011;18312;51.486;7.144;2022-10-15T08:43:01;19.02;;;10.68;;
31732;SDS011;18312;51.486;7.144;2022-10-15T08:45:29;17.95;;;9.93;;
31732;SDS011;18312;51.486;7.144;2022-10-15T08:48:00;19.92;;;10.18;;
31732;SDS011;18312;51.486;7.144;2022-10-15T08:53:03;19.88;;;8.35;;
31732;SDS011;18312;51.486;7.144;2022-10-15T08:55:32;16.65;;;9.15;;
31732;SDS011;18312;51.486;7.144;2022-10-15T08:58:04;16.02;;;8.20;;
31732;SDS011;18312;51.486;7.144;2022-10-15T09:00:40;15.82;;;8.75;;
31732;SDS011;18312;51.486;7.144;2022-10-15T09:03:16;14.27;;;8.93;;
31732;SDS011;18312;51.486;7.144;2022-10-15T09:05:56;12.85;;;7.25;;
31732;SDS011;18312;51.486;7.144;2022-10-15T09:08:32;6.50;;;5.07;;
31732;SDS011;18312;51.486;7.144;2022-10-15T09:11:07;9.20;;;4.30;;
31732;SDS011;18312;51.486;7.144;2022-10-15T09:13:42;6.25;;;4.20;;
31732;SDS011;18312;51.486;7.144;2022-10-15T09:16:11;6.95;;;4.20;;
31732;SDS011;18312;51.486;7.144;2022-10-15T09:18:42;7.10;;;3.35;;
31732;SDS011;18312;51.486;7.144;2022-10-15T09:21:13;3.70;;;2.83;;
31732;SDS011;18312;51.486;7.144;2022-10-15T09:23:40;3.63;;;2.22;;
31732;SDS011;18312;51.486;7.144;2022-10-15T09:26:12;3.33;;;2.05;;
31732;SDS011;18312;51.486;7.144;2022-10-15T09:28:48;7.25;;;2.30;;
31732;SDS011;18312;51.486;7.144;2022-10-15T09:31:22;2.63;;;1.70;;
31732;SDS011;18312;51.486;7.144;2022-10-15T09:33:58;3.40;;;1.52;;
31732;SDS011;18312;51.486;7.144;2022-10-15T09:36:34;2.60;;;1.40;;
31732;SDS011;18312;51.486;7.144;2022-10-15T09:39:13;2.75;;;0.90;;
31732;SDS011;18312;51.486;7.144;2022-10-15T09:41:57;3.40;;;0.90;;
31732;SDS011;18312;51.486;7.144;2022-10-15T09:44:31;2.63;;;0.90;;
31732;SDS011;18312;51.486;7.144;2022-10-15T09:47:06;1.05;;;0.60;;
31732;SDS011;18312;51.486;7.144;2022-10-15T09:49:40;2.88;;;0.50;;
31732;SDS011;18312;51.486;7.144;2022-10-15T09:52:09;0.82;;;0.75;;
31732;SDS011;18312;51.486;7.144;2022-10-15T09:54:42;0.65;;;0.25;;
31732;SDS011;18312;51.486;7.144;2022-10-15T09:57:16;0.30;;;0.25;;
31732;SDS011;18312;51.486;7.144;2022-10-15T09:59:52;0.35;;;0.20;;
31732;SDS011;18312;51.486;7.144;2022-10-15T10:02:21;1.10;;;0.20;;
31732;SDS011;18312;51.486;7.144;2022-10-15T10:04:48;0.38;;;0.30;;
31732;SDS011;18312;51.486;7.144;2022-10-15T10:07:33;0.40;;;0.20;;
31732;SDS011;18312;51.486;7.144;2022-10-15T10:10:02;0.25;;;0.20;;
31732;SDS011;18312;51.486;7.144;2022-10-15T10:12:31;2.35;;;0.30;;
31732;SDS011;18312;51.486;7.144;2022-10-15T10:15:01;1.00;;;0.50;;
31732;SDS011;18312;51.486;7.144;2022-10-15T10:17:30;2.00;;;0.50;;
31732;SDS011;18312;51.486;7.144;2022-10-15T10:22:47;4.72;;;0.20;;
31732;SDS011;18312;51.486;7.144;2022-10-15T10:25:22;0.50;;;0.30;;
31732;SDS011;18312;51.486;7.144;2022-10-15T10:27:54;0.45;;;0.25;;
31732;SDS011;18312;51.486;7.144;2022-10-15T10:30:22;0.57;;;0.20;;
31732;SDS011;18312;51.486;7.144;2022-10-15T10:32:53;0.13;;;0.10;;
31732;SDS011;18312;51.486;7.144;2022-10-15T10:35:22;0.20;;;0.20;;
31732;SDS011;18312;51.486;7.144;2022-10-15T10:37:51;0.95;;;0.13;;
31732;SDS011;18312;51.486;7.144;2022-10-15T10:40:20;1.92;;;0.30;;
31732;SDS011;18312;51.486;7.144;2022-10-15T10:43:01;0.90;;;0.22;;
31732;SDS011;18312;51.486;7.144;2022-10-15T10:45:35;0.20;;;0.20;;
31732;SDS011;18312;51.486;7.144;2022-10-15T10:48:14;0.30;;;0.20;;
31732;SDS011;18312;51.486;7.144;2022-10-15T10:50:44;4.47;;;0.50;;
31732;SDS011;18312;51.486;7.144;2022-10-15T10:53:20;0.30;;;0.20;;
31732;SDS011;18312;51.486;7.144;2022-10-15T10:55:48;0.50;;;0.30;;
31732;SDS011;18312;51.486;7.144;2022-10-15T10:58:17;0.40;;;0.30;;
31732;SDS011;18312;51.486;7.144;2022-10-15T11:00:46;0.50;;;0.20;;
31732;SDS011;18312;51.486;7.144;2022-10-15T11:03:19;2.20;;;0.20;;
31732;SDS011;18312;51.486;7.144;2022-10-15T11:05:55;1.35;;;0.20;;
31732;SDS011;18312;51.486;7.144;2022-10-15T11:08:32;0.30;;;0.20;;
31732;SDS011;18312;51.486;7.144;2022-10-15T11:11:11;0.70;;;0.40;;
31732;SDS011;18312;51.486;7.144;2022-10-15T11:13:49;0.85;;;0.60;;
31732;SDS011;18312;51.486;7.144;2022-10-15T11:16:23;1.42;;;0.55;;
31732;SDS011;18312;51.486;7.144;2022-10-15T11:19:01;2.60;;;0.77;;
31732;SDS011;18312;51.486;7.144;2022-10-15T11:21:41;0.95;;;0.40;;
31732;SDS011;18312;51.486;7.144;2022-10-15T11:24:18;0.93;;;0.35;;
31732;SDS011;18312;51.486;7.144;2022-10-15T11:26:58;0.30;;;0.22;;
31732;SDS011;18312;51.486;7.144;2022-10-15T11:29:39;3.00;;;0.40;;
31732;SDS011;18312;51.486;7.144;2022-10-15T11:32:16;0.57;;;0.35;;
31732;SDS011;18312;51.486;7.144;2022-10-15T11:34:55;0.88;;;0.40;;
31732;SDS011;18312;51.486;7.144;2022-10-15T11:37:36;0.45;;;0.20;;
31732;SDS011;18312;51.486;7.144;2022-10-15T11:40:18;2.70;;;0.50;;
31732;SDS011;18312;51.486;7.144;2022-10-15T11:42:52;1.15;;;0.40;;
31732;SDS011;18312;51.486;7.144;2022-10-15T11:45:30;1.30;;;0.50;;
31732;SDS011;18312;51.486;7.144;2022-10-15T11:48:21;0.68;;;0.30;;
31732;SDS011;18312;51.486;7.144;2022-10-15T11:51:00;0.40;;;0.28;;
31732;SDS011;18312;51.486;7.144;2022-10-15T11:53:36;0.68;;;0.60;;
31732;SDS011;18312;51.486;7.144;2022-10-15T11:56:19;0.40;;;0.28;;
31732;SDS011;18312;51.486;7.144;2022-10-15T11:58:53;0.52;;;0.35;;
31732;SDS011;18312;51.486;7.144;2022-10-15T12:01:24;1.92;;;0.52;;
31732;SDS011;18312;51.486;7.144;2022-10-15T12:03:56;1.17;;;0.50;;
31732;SDS011;18312;51.486;7.144;2022-10-15T12:06:28;2.47;;;0.35;;
31732;SDS011;18312;51.486;7.144;2022-10-15T12:08:57;0.60;;;0.43;;
31732;SDS011;18312;51.486;7.144;2022-10-15T12:11:29;0.50;;;0.47;;
31732;SDS011;18312;51.486;7.144;2022-10-15T12:14:11;0.40;;;0.30;;
31732;SDS011;18312;51.486;7.144;2022-10-15T12:16:43;0.73;;;0.22;;
31732;SDS011;18312;51.486;7.144;2022-10-15T12:19:15;1.27;;;0.55;;
31732;SDS011;18312;51.486;7.144;2022-10-15T12:24:50;0.40;;;0.30;;
31732;SDS011;18312;51.486;7.144;2022-10-15T12:27:23;0.45;;;0.40;;
31732;SDS011;18312;51.486;7.144;2022-10-15T12:30:11;0.57;;;0.40;;
31732;SDS011;18312;51.486;7.144;2022-10-15T12:32:46;1.05;;;0.88;;
31732;SDS011;18312;51.486;7.144;2022-10-15T12:35:18;2.25;;;0.50;;
31732;SDS011;18312;51.486;7.144;2022-10-15T12:37:48;1.63;;;0.35;;
31732;SDS011;18312;51.486;7.144;2022-10-15T12:40:22;2.25;;;0.40;;
31732;SDS011;18312;51.486;7.144;2022-10-15T12:42:54;3.22;;;0.38;;
31732;SDS011;18312;51.486;7.144;2022-10-15T12:45:23;0.30;;;0.30;;
31732;SDS011;18312;51.486;7.144;2022-10-15T12:47:54;0.47;;;0.40;;
31732;SDS011;18312;51.486;7.144;2022-10-15T12:50:37;0.98;;;0.20;;
31732;SDS011;18312;51.486;7.144;2022-10-15T12:53:04;0.50;;;0.40;;
31732;SDS011;18312;51.486;7.144;2022-10-15T12:58:40;0.70;;;0.38;;
31732;SDS011;18312;51.486;7.144;2022-10-15T13:01:26;0.30;;;0.30;;
31732;SDS011;18312;51.486;7.144;2022-10-15T13:03:54;2.95;;;0.57;;
31732;SDS011;18312;51.486;7.144;2022-10-15T13:06:23;0.70;;;0.20;;
31732;SDS011;18312;51.486;7.144;2022-10-15T13:08:56;0.70;;;0.47;;
31732;SDS011;18312;51.486;7.144;2022-10-15T13:11:30;1.00;;;0.70;;
31732;SDS011;18312;51.486;7.144;2022-10-15T13:14:02;0.73;;;0.50;;
31732;SDS011;18312;51.486;7.144;2022-10-15T13:16:43;0.55;;;0.40;;
31732;SDS011;18312;51.486;7.144;2022-10-15T13:19:16;0.40;;;0.40;;
31732;SDS011;18312;51.486;7.144;2022-10-15T13:21:47;5.13;;;0.25;;
31732;SDS011;18312;51.486;7.144;2022-10-15T13:24:19;0.57;;;0.40;;
31732;SDS011;18312;51.486;7.144;2022-10-15T13:26:48;0.77;;;0.30;;
31732;SDS011;18312;51.486;7.144;2022-10-15T13:29:17;0.95;;;0.52;;
31732;SDS011;18312;51.486;7.144;2022-10-15T13:31:45;1.02;;;0.63;;
31732;SDS011;18312;51.486;7.144;2022-10-15T13:34:15;0.73;;;0.30;;
31732;SDS011;18312;51.486;7.144;2022-10-15T13:36:48;0.30;;;0.30;;
31732;SDS011;18312;51.486;7.144;2022-10-15T13:39:23;0.47;;;0.30;;
31732;SDS011;18312;51.486;7.144;2022-10-15T13:42:02;3.92;;;0.63;;
31732;SDS011;18312;51.486;7.144;2022-10-15T13:44:34;0.40;;;0.40;;
31732;SDS011;18312;51.486;7.144;2022-10-15T13:47:01;1.38;;;0.30;;
31732;SDS011;18312;51.486;7.144;2022-10-15T13:49:28;2.03;;;0.35;;
31732;SDS011;18312;51.486;7.144;2022-10-15T13:51:55;1.02;;;0.60;;
31732;SDS011;18312;51.486;7.144;2022-10-15T13:54:22;1.15;;;0.60;;
31732;SDS011;18312;51.486;7.144;2022-10-15T13:56:53;0.88;;;0.35;;
31732;SDS011;18312;51.486;7.144;2022-10-15T13:59:23;2.60;;;0.45;;
31732;SDS011;18312;51.486;7.144;2022-10-15T14:01:53;0.73;;;0.32;;
31732;SDS011;18312;51.486;7.144;2022-10-15T14:04:25;2.72;;;0.32;;
31732;SDS011;18312;51.486;7.144;2022-10-15T14:06:54;0.52;;;0.30;;
31732;SDS011;18312;51.486;7.144;2022-10-15T14:09:26;1.65;;;0.40;;
31732;SDS011;18312;51.486;7.144;2022-10-15T14:11:55;2.08;;;0.40;;
31732;SDS011;18312;51.486;7.144;2022-10-15T14:14:26;0.45;;;0.25;;
31732;SDS011;18312;51.486;7.144;2022-10-15T14:17:00;1.58;;;0.30;;
31732;SDS011;18312;51.486;7.144;2022-10-15T14:19:29;0.35;;;0.30;;
31732;SDS011;18312;51.486;7.144;2022-10-15T14:21:57;0.38;;;0.30;;
31732;SDS011;18312;51.486;7.144;2022-10-15T14:24:29;0.57;;;0.20;;
31732;SDS011;18312;51.486;7.144;2022-10-15T14:27:02;2.20;;;0.50;;
31732;SDS011;18312;51.486;7.144;2022-10-15T14:29:34;1.00;;;0.50;;
31732;SDS011;18312;51.486;7.144;2022-10-15T14:32:21;0.65;;;0.30;;
31732;SDS011;18312;51.486;7.144;2022-10-15T14:34:50;0.35;;;0.22;;
31732;SDS011;18312;51.486;7.144;2022-10-15T14:37:27;4.43;;;0.30;;
31732;SDS011;18312;51.486;7.144;2022-10-15T14:40:14;0.45;;;0.30;;
31732;SDS011;18312;51.486;7.144;2022-10-15T14:42:44;0.73;;;0.28;;
31732;SDS011;18312;51.486;7.144;2022-10-15T14:45:13;0.50;;;0.30;;
31732;SDS011;18312;51.486;7.144;2022-10-15T14:47:46;3.00;;;0.30;;
31732;SDS011;18312;51.486;7.144;2022-10-15T14:50:16;0.65;;;0.40;;
31732;SDS011;18312;51.486;7.144;2022-10-15T14:52:44;0.60;;;0.28;;
31732;SDS011;18312;51.486;7.144;2022-10-15T14:55:14;0.20;;;0.20;;
31732;SDS011;18312;51.486;7.144;2022-10-15T14:57:53;0.80;;;0.20;;
31732;SDS011;18312;51.486;7.144;2022-10-15T15:00:21;11.60;;;1.27;;
31732;SDS011;18312;51.486;7.144;2022-10-15T15:02:55;3.50;;;0.70;;
31732;SDS011;18312;51.486;7.144;2022-10-15T15:05:25;1.35;;;0.47;;
31732;SDS011;18312;51.486;7.144;2022-10-15T15:07:53;3.13;;;0.60;;